Time;durP1;ratioP1;P1;durP2;ratioP2;P2;SDS_P1;SDS_P2;PMS_P1;PMS_P2;Temp;Humidity;BMP_temperature;BMP_pressure;BME280_temperature;BME280_humidity;BME280_pressure;Samples;Min_cycle;Max_cycle;Signal;HPM_P1;HPM_P2
2023/07/28 00:01:38;;;;;;;;;3.33;3.00;;;;;24.22;63.49;100156.72;5020823;28;45475;-77
2023/07/28 00:04:06;;;;;;;;;2.67;2.00;;;;;24.12;63.77;100136.59;5019819;28;45221;-76
2023/07/28 00:06:33;;;;;;;;;4.00;3.00;;;;;24.22;63.55;100147.84;5019435;28;45962;-76
2023/07/28 00:08:59;;;;;;;;;4.00;3.00;;;;;24.22;63.48;100151.38;5019231;28;45399;-77
2023/07/28 00:11:25;;;;;;;;;3.00;3.00;;;;;24.15;63.87;100149.88;5017576;28;45311;-76
2023/07/28 00:13:51;;;;;;;;;3.33;3.00;;;;;24.11;64.29;100156.19;5019360;28;45422;-77
2023/07/28 00:16:17;;;;;;;;;2.00;2.00;;;;;24.13;64.09;100150.81;5018939;28;45603;-77
2023/07/28 00:18:43;;;;;;;;;3.00;3.00;;;;;24.10;63.78;100134.91;5019099;28;45742;-77
2023/07/28 00:21:08;;;;;;;;;3.00;2.33;;;;;24.09;63.95;100125.16;5017448;28;45503;-77
2023/07/28 00:23:34;;;;;;;;;3.00;2.67;;;;;24.12;63.50;100133.06;5019239;28;45465;-77
2023/07/28 00:25:59;;;;;;;;;3.00;2.00;;;;;24.07;63.57;100116.31;5018826;28;46115;-78
2023/07/28 00:28:25;;;;;;;;;4.00;3.00;;;;;24.05;63.25;100113.69;5018796;28;45578;-77
2023/07/28 00:30:51;;;;;;;;;2.00;2.00;;;;;24.12;64.25;100123.25;5018107;28;45610;-77
2023/07/28 00:33:17;;;;;;;;;3.33;3.33;;;;;24.05;64.42;100112.84;5019009;28;45513;-78
2023/07/28 00:35:43;;;;;;;;;4.00;2.00;;;;;24.02;63.98;100114.69;5018768;28;46106;-77
2023/07/28 00:38:09;;;;;;;;;4.67;3.00;;;;;24.00;64.47;100135.22;5018515;28;45597;-78
2023/07/28 00:40:37;;;;;;;;;3.00;2.33;;;;;23.84;65.19;100115.28;5018525;28;45411;-78
2023/07/28 00:43:03;;;;;;;;;3.00;3.00;;;;;23.86;64.64;100126.78;5019046;28;45359;-78
2023/07/28 00:45:30;;;;;;;;;3.00;2.67;;;;;23.82;65.13;100130.47;5018611;28;45901;-77
2023/07/28 00:48:00;;;;;;;;;3.33;3.33;;;;;23.72;64.92;100115.63;5018705;28;45497;-77
2023/07/28 00:50:26;;;;;;;;;2.67;2.33;;;;;23.79;65.25;100115.41;5018653;28;45458;-75
2023/07/28 00:52:52;;;;;;;;;4.00;3.00;;;;;23.79;65.33;100123.41;5017192;28;45529;-77
2023/07/28 00:55:18;;;;;;;;;2.00;1.00;;;;;23.82;64.48;100104.66;5018343;28;45578;-77
2023/07/28 00:57:44;;;;;;;;;3.00;3.00;;;;;23.86;64.24;100104.56;5018278;28;45366;-77
2023/07/28 01:00:10;;;;;;;;;4.00;4.00;;;;;23.82;65.71;100114.47;5018609;28;45258;-77
2023/07/28 01:02:37;;;;;;;;;5.33;4.00;;;;;23.79;65.94;100115.41;5020485;28;45774;-77
2023/07/28 01:05:04;;;;;;;;;3.00;3.00;;;;;23.79;66.02;100107.41;5038204;28;46117;-77
2023/07/28 01:07:59;;;;;;;;;4.00;4.00;;;;;23.80;65.79;100110.97;5037773;28;45509;-77
2023/07/28 01:10:30;;;;;;;;;3.33;3.33;;;;;23.85;65.88;100118.81;5038428;28;45474;-77
2023/07/28 01:12:55;;;;;;;;;3.00;3.00;;;;;23.85;65.07;100118.81;5038493;28;45504;-78
2023/07/28 01:15:21;;;;;;;;;3.67;3.33;;;;;23.77;65.25;100116.34;5037769;28;45896;-78
2023/07/28 01:17:47;;;;;;;;;3.33;3.33;;;;;23.66;65.74;100103.38;5036865;28;45496;-77
2023/07/28 01:20:12;;;;;;;;;3.67;3.00;;;;;23.60;65.43;100100.91;5038094;28;45564;-77
2023/07/28 01:22:38;;;;;;;;;3.00;3.00;;;;;23.61;66.30;100106.16;5037027;28;45407;-77
2023/07/28 01:25:16;;;;;;;;;4.00;3.00;;;;;23.57;66.05;100109.84;5036278;28;45386;-77
2023/07/28 01:27:43;;;;;;;;;3.33;2.00;;;;;23.50;65.86;100102.97;5037918;28;45418;-78
2023/07/28 01:30:10;;;;;;;;;4.00;3.00;;;;;23.51;66.12;100119.81;5036484;28;45601;-77
2023/07/28 01:32:36;;;;;;;;;4.00;3.00;;;;;23.45;66.10;100112.88;5037350;28;45682;-76
2023/07/28 01:35:03;;;;;;;;;4.00;4.00;;;;;23.41;66.21;100113.91;5035770;28;45402;-77
2023/07/28 01:37:29;;;;;;;;;3.00;3.00;;;;;23.32;66.73;100108.84;5037821;28;45418;-77
2023/07/28 01:39:57;;;;;;;;;4.00;3.00;;;;;23.31;66.10;100112.41;5036743;28;45388;-77
2023/07/28 01:42:23;;;;;;;;;3.00;3.00;;;;;23.25;66.95;100123.28;5037935;28;45636;-77
2023/07/28 01:44:48;;;;;;;;;4.00;3.00;;;;;23.05;66.64;100102.53;5037492;28;45290;-77
2023/07/28 01:47:14;;;;;;;;;3.67;3.33;;;;;22.98;67.53;100109.78;5037471;28;45442;-77
2023/07/28 01:49:40;;;;;;;;;3.00;2.33;;;;;22.95;67.45;100116.06;5036185;28;45252;-77
2023/07/28 01:52:05;;;;;;;;;4.00;4.00;;;;;22.95;66.73;100117.84;5037827;28;45472;-77
2023/07/28 01:54:31;;;;;;;;;3.00;2.67;;;;;22.89;67.05;100116.22;5036040;28;46853;-77
2023/07/28 01:56:56;;;;;;;;;2.33;2.33;;;;;22.89;67.58;100126.03;5052769;28;45430;-78
2023/07/28 01:59:22;;;;;;;;;3.00;2.00;;;;;22.73;67.37;100104.25;5037464;28;45307;-76
2023/07/28 02:01:48;;;;;;;;;3.67;3.00;;;;;22.77;67.26;100122.78;5037616;28;45465;-77
2023/07/28 02:04:13;;;;;;;;;3.00;3.00;;;;;22.67;67.87;100110.63;5037274;28;45296;-76
2023/07/28 02:06:39;;;;;;;;;3.00;3.00;;;;;22.64;67.67;100127.56;5037323;28;45938;-76
2023/07/28 02:09:05;;;;;;;;;4.00;3.00;;;;;22.60;67.40;100117.00;5052663;28;45431;-76
2023/07/28 02:11:30;;;;;;;;;2.00;2.00;;;;;22.34;68.67;100097.31;5037759;28;45394;-77
2023/07/28 02:13:56;;;;;;;;;3.00;3.00;;;;;22.17;69.41;100115.44;5036085;28;45652;-77
2023/07/28 02:16:21;;;;;;;;;5.00;3.00;;;;;22.04;70.20;100109.53;5037134;28;45341;-76
2023/07/28 02:18:47;;;;;;;;;3.00;3.00;;;;;21.79;70.16;100075.56;5037363;28;45524;-77
2023/07/28 02:21:13;;;;;;;;;3.67;3.00;;;;;21.99;69.95;100117.63;5037407;28;45495;-77
2023/07/28 02:23:38;;;;;;;;;2.00;2.00;;;;;21.92;69.65;100100.06;5035811;28;45241;-77
2023/07/28 02:26:04;;;;;;;;;4.00;3.00;;;;;21.97;69.37;100103.50;5037036;28;45252;-77
2023/07/28 02:28:29;;;;;;;;;4.00;3.00;;;;;21.75;69.45;100075.66;5037503;28;45513;-77
2023/07/28 02:30:55;;;;;;;;;4.33;3.67;;;;;21.93;69.16;100122.22;5035961;28;45653;-77
2023/07/28 02:33:20;;;;;;;;;2.00;2.00;;;;;21.86;69.17;100105.50;5036887;28;45492;-77
2023/07/28 02:35:46;;;;;;;;;3.33;3.00;;;;;21.83;69.72;100114.44;5036156;28;45616;-76
2023/07/28 02:38:12;;;;;;;;;4.00;3.33;;;;;21.80;69.35;100108.31;5036903;28;45499;-77
2023/07/28 02:40:37;;;;;;;;;3.00;3.00;;;;;21.79;69.11;100120.75;5037199;28;45232;-77
2023/07/28 02:43:03;;;;;;;;;4.00;4.00;;;;;21.85;68.66;100125.06;5036556;28;45450;-76
2023/07/28 02:45:28;;;;;;;;;5.00;5.00;;;;;21.80;69.18;100110.97;5035830;28;45344;-77
2023/07/28 02:47:54;;;;;;;;;3.00;3.00;;;;;21.65;69.47;100110.44;5037023;28;45505;-76
2023/07/28 02:50:20;;;;;;;;;3.33;3.33;;;;;21.62;68.76;100107.81;5045572;28;45556;-75
2023/07/28 02:52:45;;;;;;;;;2.00;2.00;;;;;21.67;68.75;100112.19;5046771;28;46327;-74
2023/07/28 02:55:11;;;;;;;;;4.00;3.00;;;;;21.60;68.55;100109.66;5041575;28;45372;-76
2023/07/28 02:57:37;;;;;;;;;5.00;4.33;;;;;21.57;68.97;100103.56;5044649;28;45463;-74
2023/07/28 03:00:05;;;;;;;;;2.67;2.00;;;;;21.59;68.83;100102.59;5045741;28;45252;-75
2023/07/28 03:02:31;;;;;;;;;3.00;3.00;;;;;21.61;69.04;100103.44;5042918;28;45891;-75
2023/07/28 03:04:56;;;;;;;;;4.00;3.00;;;;;21.60;69.60;100099.00;5044517;28;45478;-76
2023/07/28 03:07:22;;;;;;;;;3.00;3.00;;;;;21.51;69.86;100087.75;5046628;28;45592;-77
2023/07/28 03:09:48;;;;;;;;;2.00;2.00;;;;;21.49;69.26;100086.88;5043119;28;45717;-76
2023/07/28 03:12:13;;;;;;;;;3.00;3.00;;;;;21.40;69.84;100082.63;5044621;28;46931;-77
2023/07/28 03:14:39;;;;;;;;;3.33;2.33;;;;;21.36;69.99;100073.81;5044348;28;45613;-74
2023/07/28 03:17:05;;;;;;;;;2.67;2.67;;;;;21.36;69.84;100079.16;5043416;28;45484;-76
2023/07/28 03:19:31;;;;;;;;;3.33;3.00;;;;;21.36;69.30;100081.81;5045588;28;45317;-76
2023/07/28 03:21:57;;;;;;;;;3.00;3.00;;;;;21.34;69.78;100085.41;5044077;28;47676;-76
2023/07/28 03:24:22;;;;;;;;;3.00;3.00;;;;;21.35;69.18;100084.50;5043601;28;45729;-77
2023/07/28 03:26:48;;;;;;;;;4.33;4.00;;;;;21.30;69.58;100073.97;5045261;28;45402;-76
2023/07/28 03:29:14;;;;;;;;;2.67;2.67;;;;;21.25;69.51;100075.88;5044014;28;45601;-77
2023/07/28 03:31:40;;;;;;;;;5.67;4.00;;;;;21.19;69.08;100071.56;5044848;28;45717;-77
2023/07/28 03:34:06;;;;;;;;;4.00;3.67;;;;;21.19;69.42;100087.50;5046420;28;45394;-75
2023/07/28 03:36:31;;;;;;;;;3.33;3.33;;;;;21.18;69.42;100080.41;5038354;28;45422;-77
2023/07/28 03:38:57;;;;;;;;;4.00;3.00;;;;;21.16;69.52;100082.22;5034770;28;45256;-77
2023/07/28 03:41:22;;;;;;;;;4.00;3.00;;;;;21.10;69.19;100069.09;5027772;28;45509;-76
2023/07/28 03:43:48;;;;;;;;;6.67;5.67;;;;;21.09;69.18;100083.28;5035143;28;45567;-74
2023/07/28 03:46:14;;;;;;;;;4.33;4.33;;;;;21.08;69.07;100078.00;5035549;28;45553;-76
2023/07/28 03:48:40;;;;;;;;;6.00;5.33;;;;;21.01;69.38;100071.94;5038126;28;45508;-75
2023/07/28 03:51:05;;;;;;;;;3.67;3.00;;;;;21.00;69.43;100063.09;5038154;28;45393;-75
2023/07/28 03:53:31;;;;;;;;;5.00;5.00;;;;;20.97;69.19;100060.50;5038932;28;45354;-77
2023/07/28 03:55:58;;;;;;;;;4.67;4.67;;;;;20.97;68.71;100065.81;5038802;28;45561;-74
2023/07/28 03:58:26;;;;;;;;;3.67;3.67;;;;;20.96;69.36;100069.38;5039393;28;45324;-77
2023/07/28 04:00:53;;;;;;;;;4.33;4.00;;;;;20.88;69.91;100058.03;5039037;28;46121;-75
2023/07/28 04:03:20;;;;;;;;;5.67;5.67;;;;;20.81;69.40;100062.59;5039102;28;45315;-74
2023/07/28 04:05:47;;;;;;;;;5.00;4.00;;;;;20.70;69.98;100072.53;5039241;28;45443;-74
2023/07/28 04:08:13;;;;;;;;;4.67;4.00;;;;;20.56;70.54;100054.19;5037978;28;45555;-76
2023/07/28 04:10:39;;;;;;;;;6.00;5.33;;;;;20.55;70.40;100049.81;5038306;28;45434;-76
2023/07/28 04:13:05;;;;;;;;;4.00;4.00;;;;;20.60;70.17;100044.44;5038711;28;45373;-76
2023/07/28 04:15:30;;;;;;;;;4.00;4.00;;;;;20.74;69.70;100054.78;5039367;28;45415;-75
2023/07/28 04:17:56;;;;;;;;;4.00;4.00;;;;;20.71;69.55;100053.06;5038027;28;45451;-75
2023/07/28 04:20:21;;;;;;;;;5.33;5.33;;;;;20.67;69.86;100040.72;5039085;28;46183;-75
2023/07/28 04:22:47;;;;;;;;;6.33;5.00;;;;;20.67;69.79;100056.66;5037700;28;45455;-75
2023/07/28 04:25:13;;;;;;;;;5.67;5.33;;;;;20.58;69.67;100047.06;5037174;28;45506;-76
2023/07/28 04:27:38;;;;;;;;;7.00;6.00;;;;;20.66;69.51;100054.94;5037416;28;45556;-75
2023/07/28 04:30:05;;;;;;;;;6.00;6.00;;;;;20.61;69.37;100057.69;5037660;28;46126;-76
2023/07/28 04:32:31;;;;;;;;;7.33;7.00;;;;;20.60;69.45;100053.25;5038892;28;45422;-76
2023/07/28 04:34:56;;;;;;;;;6.67;6.33;;;;;20.55;69.70;100040.94;5038519;28;45399;-76
2023/07/28 04:37:22;;;;;;;;;6.00;5.33;;;;;20.47;69.84;100038.44;5039271;28;45344;-76
2023/07/28 04:39:48;;;;;;;;;6.67;5.00;;;;;20.50;70.45;100062.25;5038672;28;45922;-76
2023/07/28 04:42:13;;;;;;;;;5.00;5.00;;;;;20.50;70.55;100059.63;5038571;28;45505;-77
2023/07/28 04:44:40;;;;;;;;;7.00;5.00;;;;;20.44;70.63;100068.56;5038607;28;45269;-76
2023/07/28 04:47:06;;;;;;;;;4.00;4.00;;;;;20.30;70.86;100038.75;5039284;28;45531;-76
2023/07/28 04:49:31;;;;;;;;;6.00;5.33;;;;;20.44;70.58;100062.38;5038462;28;45532;-76
2023/07/28 04:51:57;;;;;;;;;8.67;6.67;;;;;20.13;70.66;100006.34;5037264;28;45463;-77
2023/07/28 04:54:22;;;;;;;;;6.50;5.50;;;;;20.40;70.59;100056.25;5038587;28;45351;-75
2023/07/28 04:56:50;;;;;;;;;5.33;5.00;;;;;20.49;70.84;100052.53;5038635;28;45416;-77
2023/07/28 04:59:16;;;;;;;;;3.00;2.00;;;;;20.56;69.97;100059.50;5036712;28;47978;-77
2023/07/28 05:01:42;;;;;;;;;6.00;4.67;;;;;20.56;70.19;100053.31;5038298;28;45327;-76
2023/07/28 05:04:07;;;;;;;;;6.00;4.33;;;;;20.64;69.95;100054.94;5038992;28;45472;-76
2023/07/28 05:06:33;;;;;;;;;7.67;6.00;;;;;20.66;69.36;100049.63;5037348;28;45658;-76
2023/07/28 05:08:58;;;;;;;;;6.67;5.67;;;;;20.73;69.56;100056.56;5038093;28;45402;-75
2023/07/28 05:11:24;;;;;;;;;5.00;5.00;;;;;20.84;69.65;100067.81;5038179;28;45497;-75
2023/07/28 05:13:50;;;;;;;;;10.67;8.00;;;;;20.86;68.82;100071.31;5038320;28;45387;-76
2023/07/28 05:16:15;;;;;;;;;7.00;7.00;;;;;20.95;68.50;100072.03;5038514;28;45543;-76
2023/07/28 05:18:42;;;;;;;;;7.33;7.00;;;;;21.04;68.85;100078.03;5038056;28;45600;-75
2023/07/28 05:21:08;;;;;;;;;19.33;17.00;;;;;21.06;68.68;100078.03;5038110;28;45482;-76
2023/07/28 05:23:34;;;;;;;;;19.67;17.00;;;;;20.97;68.63;100079.09;5038056;28;45808;-75
2023/07/28 05:26:00;;;;;;;;;22.00;21.00;;;;;20.98;68.50;100069.34;5037943;28;45493;-75
2023/07/28 05:28:25;;;;;;;;;28.00;23.25;;;;;20.93;68.42;100064.13;5038015;28;45356;-76
2023/07/28 05:30:51;;;;;;;;;12.67;10.67;;;;;21.12;68.59;100077.88;5037976;28;45560;-76
2023/07/28 05:33:16;;;;;;;;;21.67;16.67;;;;;21.29;68.11;100074.88;5036590;28;45259;-76
2023/07/28 05:35:42;;;;;;;;;7.00;6.00;;;;;21.48;67.56;100080.69;5037981;28;45481;-75
2023/07/28 05:38:08;;;;;;;;;7.00;6.00;;;;;21.61;66.99;100076.00;5036687;28;46319;-75
2023/07/28 05:40:33;;;;;;;;;9.33;7.33;;;;;21.58;66.80;100060.97;5037695;28;45309;-75
2023/07/28 05:42:59;;;;;;;;;8.33;6.67;;;;;21.78;66.62;100071.13;5037880;28;45288;-75
2023/07/28 05:45:25;;;;;;;;;8.00;7.67;;;;;21.77;66.16;100047.25;5038224;28;45312;-75
2023/07/28 05:47:50;;;;;;;;;11.00;10.67;;;;;21.84;65.57;100057.72;5037631;28;46025;-75
2023/07/28 05:50:16;;;;;;;;;9.00;8.00;;;;;21.92;65.84;100068.13;5037700;28;45540;-76
2023/07/28 05:52:41;;;;;;;;;8.33;7.33;;;;;21.85;65.53;100056.78;5038014;28;45541;-75
2023/07/28 05:55:08;;;;;;;;;8.33;7.33;;;;;21.99;65.43;100061.78;5037978;28;45561;-76
2023/07/28 05:57:34;;;;;;;;;6.33;6.33;;;;;22.08;65.34;100063.31;5037514;28;46081;-75
2023/07/28 05:59:59;;;;;;;;;7.67;5.00;;;;;22.14;65.70;100065.81;5037409;28;45366;-75
2023/07/28 06:02:25;;;;;;;;;7.00;6.00;;;;;22.27;65.17;100082.38;5037692;28;45319;-75
2023/07/28 06:04:52;;;;;;;;;10.67;9.00;;;;;22.20;65.41;100076.34;5036281;28;45320;-75
2023/07/28 06:07:17;;;;;;;;;8.00;6.33;;;;;22.33;65.90;100082.22;5035999;28;45427;-76
2023/07/28 06:09:43;;;;;;;;;7.67;7.00;;;;;22.46;65.46;100089.88;5036682;28;45813;-76
2023/07/28 06:12:09;;;;;;;;;10.33;8.33;;;;;22.44;65.08;100074.84;5037754;28;45459;-75
2023/07/28 06:14:34;;;;;;;;;7.00;5.67;;;;;22.42;65.22;100068.69;5036945;28;45268;-76
2023/07/28 06:17:00;;;;;;;;;8.00;6.33;;;;;22.34;65.72;100083.09;5037058;28;45909;-75
2023/07/28 06:19:26;;;;;;;;;8.33;7.00;;;;;22.34;66.09;100088.41;5037049;28;45497;-76
2023/07/28 06:21:51;;;;;;;;;5.33;4.67;;;;;22.32;65.37;100085.81;5035314;28;45492;-76
2023/07/28 06:24:17;;;;;;;;;6.67;6.00;;;;;22.17;65.78;100078.19;5037226;28;45319;-75
2023/07/28 06:26:43;;;;;;;;;6.67;5.33;;;;;22.13;66.67;100082.72;5037231;28;46014;-75
2023/07/28 06:29:08;;;;;;;;;6.67;6.33;;;;;22.07;66.39;100085.53;5037132;28;45440;-75
2023/07/28 06:31:34;;;;;;;;;8.33;6.67;;;;;22.26;66.57;100106.38;5037328;28;45309;-75
2023/07/28 06:34:00;;;;;;;;;6.67;6.67;;;;;22.41;66.22;100109.50;5035886;28;45435;-75
2023/07/28 06:36:25;;;;;;;;;5.00;5.00;;;;;22.59;65.81;100109.97;5036866;28;45360;-76
2023/07/28 06:38:52;;;;;;;;;5.33;5.00;;;;;22.64;65.05;100111.59;5035544;28;45565;-75
2023/07/28 06:41:18;;;;;;;;;6.00;6.00;;;;;22.66;64.74;100102.66;5037130;28;45257;-76
2023/07/28 06:43:44;;;;;;;;;7.67;4.67;;;;;22.78;64.83;100102.31;5037450;28;45542;-76
2023/07/28 06:46:09;;;;;;;;;5.67;5.00;;;;;22.82;64.29;100098.69;5036727;28;46214;-76
2023/07/28 06:48:35;;;;;;;;;6.33;6.00;;;;;23.03;64.51;100114.09;5036883;28;45399;-76
2023/07/28 06:51:00;;;;;;;;;7.00;7.00;;;;;23.18;64.42;100102.13;5037355;28;45481;-76
2023/07/28 06:53:26;;;;;;;;;6.67;6.00;;;;;23.26;63.47;100088.59;5036986;28;45511;-76
2023/07/28 06:55:52;;;;;;;;;7.00;6.67;;;;;23.51;63.55;100112.69;5036656;28;45438;-76
2023/07/28 06:58:18;;;;;;;;;8.00;5.00;;;;;23.60;62.94;100109.75;5036427;28;45351;-76
2023/07/28 07:00:44;;;;;;;;;6.00;6.00;;;;;23.73;62.83;100104.03;5034737;28;45482;-76
2023/07/28 07:03:11;;;;;;;;;6.00;5.33;;;;;23.86;63.18;100113.44;5028967;28;45645;-76
2023/07/28 07:05:38;;;;;;;;;6.33;6.00;;;;;23.94;62.36;100108.72;5035584;28;45473;-75
2023/07/28 07:08:03;;;;;;;;;5.00;4.33;;;;;23.95;62.10;100089.13;5035839;28;45576;-77
2023/07/28 07:10:30;;;;;;;;;8.00;7.00;;;;;24.23;61.66;100106.88;5035229;28;45308;-77
2023/07/28 07:12:59;;;;;;;;;7.00;6.33;;;;;24.51;61.50;100109.56;5036850;28;45157;-75
2023/07/28 07:15:25;;;;;;;;;8.00;7.33;;;;;24.65;60.71;100108.16;5035358;28;45545;-76
2023/07/28 07:17:50;;;;;;;;;6.00;6.00;;;;;24.52;60.98;100103.25;5036559;28;45348;-77
2023/07/28 07:20:16;;;;;;;;;6.00;5.33;;;;;24.66;60.34;100096.56;5034903;28;45411;-75
2023/07/28 07:22:41;;;;;;;;;6.00;5.33;;;;;24.82;60.42;100108.44;5039016;28;45444;-75
2023/07/28 07:25:07;;;;;;;;;7.33;5.33;;;;;24.92;60.28;100122.34;5039512;28;46023;-77
2023/07/28 07:27:33;;;;;;;;;5.67;5.33;;;;;24.78;59.85;100128.19;5039922;28;46072;-77
2023/07/28 07:29:59;;;;;;;;;7.00;6.33;;;;;24.80;60.68;100129.88;5039975;28;45254;-77
2023/07/28 07:32:24;;;;;;;;;6.33;6.00;;;;;24.84;60.78;100130.63;5039772;28;45172;-75
2023/07/28 07:34:50;;;;;;;;;6.00;5.00;;;;;24.85;60.42;100121.72;5039584;28;45329;-75
2023/07/28 07:37:15;;;;;;;;;5.67;5.00;;;;;24.90;60.74;100116.19;5039973;28;45362;-75
2023/07/28 07:39:43;;;;;;;;;7.67;5.33;;;;;25.10;60.06;100112.78;5039911;28;45307;-75
2023/07/28 07:42:14;;;;;;;;;5.00;5.00;;;;;25.14;60.01;100109.06;5039988;28;45465;-76
2023/07/28 07:44:40;;;;;;;;;6.67;4.67;;;;;25.26;59.92;100110.44;5039472;28;45972;-76
2023/07/28 07:47:15;;;;;;;;;7.67;7.33;;;;;25.24;60.36;100105.16;5039348;28;45270;-76
2023/07/28 07:49:42;;;;;;;;;7.00;6.67;;;;;25.53;59.88;100113.88;5039160;28;45457;-75
2023/07/28 07:52:11;;;;;;;;;8.67;8.00;;;;;25.81;59.29;100124.38;5039271;28;45256;-76
2023/07/28 07:54:37;;;;;;;;;5.67;5.67;;;;;26.04;58.64;100127.94;5039146;28;46034;-75
2023/07/28 07:57:04;;;;;;;;;6.33;5.00;;;;;26.27;58.07;100109.13;5039339;28;45806;-76
2023/07/28 07:59:32;;;;;;;;;5.33;5.00;;;;;26.41;57.18;100111.22;5039697;28;45462;-76
2023/07/28 08:02:00;;;;;;;;;9.00;7.33;;;;;26.50;57.35;100117.97;5039546;28;45505;-76
2023/07/28 08:04:25;;;;;;;;;8.33;6.00;;;;;26.78;56.55;100110.53;5039135;28;45459;-76
2023/07/28 08:07:35;;;;;;;;;6.33;6.00;;;;;27.02;55.07;100080.00;5039064;28;45683;-76
2023/07/28 08:10:01;;;;;;;;;9.00;6.33;;;;;26.99;55.43;100107.81;5037924;28;45425;-75
2023/07/28 08:12:27;;;;;;;;;7.00;4.00;;;;;26.61;56.68;100114.88;5037620;28;45670;-76
2023/07/28 08:14:53;;;;;;;;;8.67;7.67;;;;;26.63;56.65;100097.81;5039021;28;46112;-75
2023/07/28 08:17:19;;;;;;;;;8.00;8.00;;;;;26.77;56.51;100107.91;5038866;28;45254;-76
2023/07/28 08:19:45;;;;;;;;;7.00;6.00;;;;;26.66;56.56;100103.03;5039048;28;45474;-75
2023/07/28 08:22:12;;;;;;;;;6.00;5.00;;;;;26.50;56.50;100109.94;5038761;28;45545;-76
2023/07/28 08:24:37;;;;;;;;;5.00;5.00;;;;;26.53;56.58;100104.47;5038911;28;46190;-76
2023/07/28 08:27:03;;;;;;;;;9.00;8.00;;;;;26.94;55.81;100099.13;5038417;28;45415;-76
2023/07/28 08:29:29;;;;;;;;;11.00;9.33;;;;;26.86;55.19;100093.22;5038702;28;45416;-76
2023/07/28 08:31:55;;;;;;;;;7.00;6.33;;;;;27.05;55.80;100096.81;5038831;28;45336;-75
2023/07/28 08:34:21;;;;;;;;;5.67;5.67;;;;;27.54;53.72;100066.88;5037391;28;45870;-75
2023/07/28 08:36:46;;;;;;;;;8.00;6.00;;;;;27.94;53.51;100090.00;5036828;28;45272;-75
2023/07/28 08:39:12;;;;;;;;;6.00;6.00;;;;;28.26;53.50;100082.13;5038560;28;45337;-75
2023/07/28 08:41:38;;;;;;;;;7.33;6.00;;;;;28.44;51.86;100074.94;5039004;28;45554;-75
2023/07/28 08:44:04;;;;;;;;;7.33;7.33;;;;;28.32;53.06;100089.00;5038008;28;46005;-75
2023/07/28 08:46:30;;;;;;;;;6.33;5.33;;;;;28.16;52.42;100056.69;5038022;28;45347;-75
2023/07/28 08:48:56;;;;;;;;;6.00;5.33;;;;;28.22;52.67;100077.88;5038596;28;45558;-75
2023/07/28 08:51:25;;;;;;;;;5.00;4.67;;;;;28.15;52.42;100052.25;5038181;28;45201;-75
2023/07/28 08:53:52;;;;;;;;;7.33;5.00;;;;;28.24;52.35;100069.75;5037862;28;46579;-75
2023/07/28 08:56:18;;;;;;;;;5.00;5.00;;;;;28.28;52.42;100069.50;5037366;28;45647;-74
2023/07/28 08:58:44;;;;;;;;;7.00;6.67;;;;;28.49;52.71;100074.69;5038106;28;45387;-76
2023/07/28 09:01:12;;;;;;;;;6.00;4.67;;;;;28.98;51.73;100080.19;5038525;28;45785;-76
2023/07/28 09:03:41;;;;;;;;;5.00;5.00;;;;;29.43;49.88;100075.97;5038071;28;46200;-76
2023/07/28 09:06:10;;;;;;;;;7.00;6.67;;;;;29.65;49.97;100072.09;5038044;28;45340;-75
2023/07/28 09:11:59;;;;;;;;;5.67;5.67;;;;;29.90;49.71;100074.25;5037619;28;45476;-75
2023/07/28 09:14:24;;;;;;;;;7.67;7.00;;;;;30.19;48.80;100086.00;5037582;28;45998;-75
2023/07/28 09:16:52;;;;;;;;;5.67;5.00;;;;;30.36;48.28;100076.94;5037639;28;45375;-75
2023/07/28 09:19:20;;;;;;;;;6.00;5.00;;;;;30.47;48.12;100079.88;5037989;28;45439;-75
2023/07/28 09:22:00;;;;;;;;;5.00;5.00;;;;;30.67;47.36;100081.34;5038161;28;45184;-75
2023/07/28 09:24:33;;;;;;;;;5.67;5.33;;;;;30.86;47.67;100077.56;5037576;28;46119;-75
2023/07/28 09:27:00;;;;;;;;;6.00;5.33;;;;;31.01;47.85;100081.13;5037443;28;45325;-74
2023/07/28 09:29:29;;;;;;;;;5.33;5.33;;;;;31.22;45.91;100070.84;5037771;28;45469;-75
2023/07/28 09:32:05;;;;;;;;;4.67;4.00;;;;;31.77;45.24;100059.16;5037634;28;45479;-75
2023/07/28 09:34:32;;;;;;;;;6.00;5.67;;;;;32.48;43.53;100070.63;5037330;28;46522;-75
2023/07/28 09:36:59;;;;;;;;;4.67;4.33;;;;;32.89;43.40;100067.78;5037107;28;45429;-75
2023/07/28 09:39:26;;;;;;;;;6.00;5.00;;;;;33.40;41.17;100069.56;5037292;28;45493;-75
2023/07/28 09:41:57;;;;;;;;;4.33;4.33;;;;;33.44;39.44;100025.03;5037994;28;45763;-76
2023/07/28 09:44:23;;;;;;;;;6.67;5.33;;;;;34.12;39.35;100067.91;5035652;28;47893;-76
2023/07/28 09:46:55;;;;;;;;;7.67;7.67;;;;;34.30;38.15;100071.94;5037249;28;45532;-76
2023/07/28 09:49:34;;;;;;;;;8.00;6.00;;;;;34.63;39.21;100068.44;5037718;28;45409;-76
2023/07/28 09:52:05;;;;;;;;;6.33;6.33;;;;;35.08;35.35;100055.94;5037516;28;45499;-76
2023/07/28 09:54:34;;;;;;;;;6.67;5.67;;;;;35.28;36.91;100055.22;5036586;28;45446;-76
2023/07/28 09:57:02;;;;;;;;;5.67;5.00;;;;;35.61;37.09;100075.16;5036712;28;45496;-74
2023/07/28 09:59:41;;;;;;;;;6.00;6.00;;;;;35.87;36.46;100064.00;5037180;28;45463;-76
2023/07/28 10:02:08;;;;;;;;;5.00;5.00;;;;;36.06;35.59;100061.47;5037202;28;45187;-76
2023/07/28 10:04:35;;;;;;;;;6.00;6.00;;;;;35.50;35.61;100072.50;5036617;28;46367;-76
2023/07/28 10:07:02;;;;;;;;;7.00;7.00;;;;;35.48;36.17;100075.31;5036632;28;45518;-75
2023/07/28 10:09:33;;;;;;;;;9.67;8.67;;;;;35.37;36.11;100059.88;5035493;28;45370;-75
2023/07/28 10:12:00;;;;;;;;;6.67;6.00;;;;;35.45;36.80;100079.16;5037101;28;45347;-76
2023/07/28 10:14:27;;;;;;;;;6.33;5.33;;;;;35.74;37.28;100086.78;5036480;28;45420;-76
2023/07/28 10:16:53;;;;;;;;;6.67;6.00;;;;;35.60;35.76;100089.75;5037028;28;45205;-76
2023/07/28 10:19:25;;;;;;;;;5.67;5.67;;;;;35.70;36.29;100088.03;5037182;28;45408;-76
2023/07/28 10:22:02;;;;;;;;;5.33;5.00;;;;;36.18;35.29;100087.66;5036916;28;45399;-76
2023/07/28 10:24:52;;;;;;;;;7.33;7.33;;;;;35.97;34.82;100086.72;5036478;28;46281;-76
2023/07/28 10:27:39;;;;;;;;;8.00;6.33;;;;;36.19;35.17;100081.22;5035336;28;45589;-76
2023/07/28 10:30:14;;;;;;;;;6.67;6.67;;;;;36.54;33.95;100071.88;5036599;28;45437;-76
2023/07/28 10:32:43;;;;;;;;;6.67;5.67;;;;;36.98;33.17;100078.03;5036681;28;45509;-76
2023/07/28 10:35:15;;;;;;;;;6.67;6.67;;;;;36.78;33.53;100052.56;5036042;28;45998;-76
2023/07/28 10:37:45;;;;;;;;;7.00;7.00;;;;;37.19;34.20;100069.00;5033924;28;45560;-76
2023/07/28 10:40:31;;;;;;;;;7.00;6.00;;;;;37.53;32.50;100076.84;5036250;28;45472;-76
2023/07/28 10:42:58;;;;;;;;;7.00;6.67;;;;;37.74;33.14;100066.72;5036522;28;45389;-76
2023/07/28 10:45:27;;;;;;;;;5.67;5.67;;;;;37.91;31.64;100058.88;5036423;28;46114;-76
2023/07/28 10:47:59;;;;;;;;;6.67;6.67;;;;;37.93;30.88;100043.22;5036819;28;45466;-76
2023/07/28 10:50:27;;;;;;;;;9.00;6.33;;;;;38.09;31.05;100054.44;5036646;28;45425;-76
2023/07/28 10:52:53;;;;;;;;;5.00;5.00;;;;;38.05;31.49;100046.69;5036417;28;45301;-76
2023/07/28 10:55:24;;;;;;;;;7.67;7.67;;;;;37.87;32.40;100050.09;5036063;28;45509;-76
2023/07/28 10:57:52;;;;;;;;;9.00;9.00;;;;;38.06;32.23;100046.53;5037959;28;45410;-76
2023/07/28 11:00:21;;;;;;;;;5.67;5.33;;;;;38.24;31.96;100032.19;5039974;28;45278;-76
2023/07/28 11:02:50;;;;;;;;;5.67;5.67;;;;;38.49;29.75;100037.03;5038567;28;45573;-74
2023/07/28 11:05:27;;;;;;;;;6.00;6.00;;;;;38.64;30.81;100039.31;5039638;28;45593;-75
2023/07/28 11:07:58;;;;;;;;;5.00;5.00;;;;;38.79;30.40;100037.84;5039742;28;45269;-74
2023/07/28 11:10:25;;;;;;;;;8.00;7.00;;;;;38.38;29.25;100026.25;5040043;28;45489;-74
2023/07/28 11:12:52;;;;;;;;;6.33;6.33;;;;;38.48;30.49;100015.34;5039841;28;45474;-74
2023/07/28 11:15:19;;;;;;;;;5.33;5.33;;;;;38.88;29.05;100025.16;5039654;28;45601;-75
2023/07/28 11:17:50;;;;;;;;;5.00;5.00;;;;;38.51;29.42;99991.34;5039629;28;45382;-76
2023/07/28 11:20:26;;;;;;;;;6.00;6.00;;;;;38.54;29.86;100028.41;5039585;28;45504;-76
2023/07/28 11:22:55;;;;;;;;;6.00;6.00;;;;;38.35;29.84;100019.25;5039544;28;45355;-76
2023/07/28 11:25:21;;;;;;;;;5.00;5.00;;;;;38.09;30.34;100027.19;5038766;28;45508;-76
2023/07/28 11:27:48;;;;;;;;;7.67;6.00;;;;;37.53;30.46;100016.91;5039308;28;45484;-76